Atlantida — UALU — position and weather

sailwx.info

Track history (hours):
 
Tides and Currents Weather Stations Pressure Air Temp Water Temp Dewpoint Dewpoint Depression Visibility Wind Speed Wind Dir Waves Ship Positions

Atlantida

Last reported at 2017-Nov-18 10:30 UTC. Time now 2017-Nov-18 10:33 UTC.
Position N 28°08' W 015°25'.

Length 62 m; draft 6 m.

Type: Fishing. MMSI: 273242100.

Date/timePositionNaut miles runAvg speedWind from/ knotsBaromVisibWave heightAir tempDewpointWater temp
2017-Nov-18 10:30N 28°08' W 015°25'2 3.8
2017-Nov-18 10:00N 28°07' W 015°23'0 0.0
2017-Nov-18 09:30N 28°07' W 015°23'2 4.9
2017-Nov-18 09:00N 28°08' W 015°20'1 1.8
2017-Nov-18 08:30N 28°07' W 015°20'1 1.7
2017-Nov-18 08:00N 28°06' W 015°20'1 1.8
2017-Nov-18 07:30N 28°05' W 015°20'3 6.4
2017-Nov-18 07:00N 28°03' W 015°18'4 7.2
2017-Nov-18 06:30N 27°60' W 015°15'4 7.4
2017-Nov-18 06:00N 27°56' W 015°14'4 7.6
2017-Nov-18 05:30N 27°53' W 015°12'4 7.3
2017-Nov-18 05:00N 27°50' W 015°10'4 7.2
2017-Nov-18 04:30N 27°46' W 015°08'4 7.6
2017-Nov-18 04:00N 27°43' W 015°07'5 8.0
2017-Nov-18 03:25N 27°39' W 015°04'  
2017-Nov-10 16:07N 23°04' W 016°58'1 6.1
2017-Nov-10 15:59N 23°04' W 016°59'2 3.8
2017-Nov-10 15:30N 23°04' W 017°01'4 3.3
2017-Nov-10 14:27N 23°02' W 017°04'5 3.3
2017-Nov-10 12:55N 22°60' W 017°09'1 1.7
2017-Nov-10 12:12N 23°00' W 017°08'1 4.7
2017-Nov-10 11:55N 22°60' W 017°09'2 5.4
2017-Nov-10 11:30N 22°59' W 017°11'2 4.6
2017-Nov-10 11:00N 22°59' W 017°14'  
Track history (hours):
 
Tides and Currents Weather Stations Pressure Air Temp Water Temp Dewpoint Dewpoint Depression Visibility Wind Speed Wind Dir Waves Ship Positions

Atlantida

Last reported at 2017-Nov-18 10:30 UTC. Time now 2017-Nov-18 10:33 UTC.
Position N 28°08' W 015°25'.

Length 62 m; draft 6 m.

Type: Fishing. MMSI: 273242100.

Date/timePositionNaut miles runAvg speedWind from/ knotsBaromVisibWave heightAir tempDewpointWater temp
2017-Nov-18 10:30N 28°08' W 015°25'2 3.8
2017-Nov-18 10:00N 28°07' W 015°23'0 0.0
2017-Nov-18 09:30N 28°07' W 015°23'2 4.9
2017-Nov-18 09:00N 28°08' W 015°20'1 1.8
2017-Nov-18 08:30N 28°07' W 015°20'1 1.7
2017-Nov-18 08:00N 28°06' W 015°20'1 1.8
2017-Nov-18 07:30N 28°05' W 015°20'3 6.4
2017-Nov-18 07:00N 28°03' W 015°18'4 7.2
2017-Nov-18 06:30N 27°60' W 015°15'4 7.4
2017-Nov-18 06:00N 27°56' W 015°14'4 7.6
2017-Nov-18 05:30N 27°53' W 015°12'4 7.3
2017-Nov-18 05:00N 27°50' W 015°10'4 7.2
2017-Nov-18 04:30N 27°46' W 015°08'4 7.6
2017-Nov-18 04:00N 27°43' W 015°07'5 8.0
2017-Nov-18 03:25N 27°39' W 015°04'  
2017-Nov-10 16:07N 23°04' W 016°58'1 6.1
2017-Nov-10 15:59N 23°04' W 016°59'2 3.8
2017-Nov-10 15:30N 23°04' W 017°01'4 3.3
2017-Nov-10 14:27N 23°02' W 017°04'5 3.3
2017-Nov-10 12:55N 22°60' W 017°09'1 1.7
2017-Nov-10 12:12N 23°00' W 017°08'1 4.7
2017-Nov-10 11:55N 22°60' W 017°09'2 5.4
2017-Nov-10 11:30N 22°59' W 017°11'2 4.6
2017-Nov-10 11:00N 22°59' W 017°14'  

Dump ship's entire track history